Flight Track Log - Related Links

Times and Time Zones

All times are in EDT time to prevent confusion due to time zone crossing. See the WBR2634 flight status page for this flight to view local times or setup timezone preferences in your user account.

Time Position Orientation Groundspeed Altitude Reporting Facility
EDT Latitude Longitude Course Direction KTS MPH feet Rate Location/Type
Tue 05:59:27 PM 40.7778 -91.0514 73° East 91 105 2,900  Level Chicago Center
Tue 06:00:00 PM 40.8667 -90.7651 90° East  Level FlightAware Approximate
Tue 06:00:30 PM 40.7894 -91.0117 69° East 113 130 3,700  Level Chicago Center
Tue 06:01:00 PM 40.8780 -90.7047 72° East  Level FlightAware Approximate
Tue 06:01:32 PM 40.8003 -90.9692 71° East 118 136 4,400  Level Chicago Center
Tue 06:02:00 PM 40.8923 -90.6448 73° East  Level FlightAware Approximate
Tue 06:02:34 PM 40.8117 -90.9242 71° East 126 145 5,000  Level Chicago Center
Tue 06:03:00 PM 40.9063 -90.5847 73° East  Level FlightAware Approximate
Tue 06:03:36 PM 40.8250 -90.8631 74° East 141 162 5,600  Level Chicago Center
Tue 06:04:00 PM 40.9202 -90.5245 73° East  Level FlightAware Approximate
Tue 06:04:38 PM 40.8419 -90.8117 66° East 149 171 6,100  Level Chicago Center
Tue 06:05:40 PM 40.8586 -90.7611 66° East 151 174 6,600 435 Climbing Chicago Center
Tue 06:06:42 PM 40.8769 -90.7108 64° Northeast 152 175 7,000 435 Climbing Chicago Center
Tue 06:07:44 PM 40.8958 -90.6581 65° Northeast 158 182 7,500 484 Climbing Chicago Center
Tue 06:08:46 PM 40.9139 -90.6039 66° East 161 185 8,000 484 Climbing Chicago Center
Tue 06:09:48 PM 40.9356 -90.5414 65° Northeast 158 182 8,500 480 Climbing Chicago Center
Tue 06:10:51 PM 40.9567 -90.4875 63° Northeast 163 188 9,000 288 Climbing Chicago Center
Tue 06:11:53 PM 40.9750 -90.4331 66° East 163 188 9,100 48 Climbing Chicago Center
Tue 06:12:55 PM 40.9964 -90.3781 63° Northeast 167 192 9,100 -48 Level Chicago Center
Tue 06:13:57 PM 41.0164 -90.3200 65° Northeast 172 198 9,000 -48 Descending Chicago Center
Tue 06:14:59 PM 41.0358 -90.2600 67° East 176 203 9,000 -48 Level Chicago Center
Tue 06:16:01 PM 41.0533 -90.2008 69° East 174 200 8,900  Descending Chicago Center
Tue 06:17:03 PM 41.0789 -90.1336 63° Northeast 169 194 9,000 48 Climbing Chicago Center
Tue 06:18:05 PM 41.1008 -90.0808 61° Northeast 167 192 9,000  Level Chicago Center
Tue 06:19:07 PM 41.1211 -90.0256 64° Northeast 165 190 9,000 48 Level Chicago Center
Tue 06:20:10 PM 41.1422 -89.9700 63° Northeast 167 192 9,100 48 Climbing Chicago Center
Tue 06:21:11 PM 41.1617 -89.9133 65° Northeast 168 193 9,100 -48 Level Chicago Center
Tue 06:22:14 PM 41.1803 -89.8556 67° East 170 196 9,000  Descending Chicago Center
Tue 06:23:16 PM 41.2014 -89.8000 63° Northeast 169 194 9,100 48 Climbing Chicago Center
Tue 06:24:18 PM 41.2272 -89.7317 63° Northeast 171 197 9,100 -48 Level Chicago Center
Tue 06:25:20 PM 41.2475 -89.6744 65° Northeast 171 197 9,000 -48 Descending Chicago Center
Tue 06:26:22 PM 41.2697 -89.6172 63° Northeast 173 199 9,000 -48 Level Chicago Center
Tue 06:27:24 PM 41.2892 -89.5597 66° East 171 197 8,900 -48 Descending Chicago Center
Tue 06:28:26 PM 41.3050 -89.4992 71° East 173 199 8,900 -48 Level Chicago Center
Tue 06:29:29 PM 41.3306 -89.4456 58° Northeast 172 198 8,800  Descending Chicago Center
Tue 06:30:30 PM 41.3564 -89.3775 63° Northeast 172 198 8,900 97 Climbing Chicago Center
Tue 06:31:33 PM 41.3739 -89.3203 68° East 167 192 9,000 48 Climbing Chicago Center
Tue 06:32:35 PM 41.3933 -89.2631 66° East 168 193 9,000 -48 Level Chicago Center
Tue 06:33:37 PM 41.4125 -89.2053 66° East 170 196 8,900 -48 Descending Chicago Center
Tue 06:34:39 PM 41.4317 -89.1425 68° East 169 194 8,900  Level Chicago Center
Tue 06:35:41 PM 41.4525 -89.0844 64° Northeast 173 199 8,900  Level Chicago Center
Tue 06:36:43 PM 41.4714 -89.0275 66° East 171 197 8,900  Level Chicago Center
Tue 06:37:45 PM 41.4978 -88.9611 62° Northeast 168 193 8,900  Level Chicago Center
Tue 06:38:47 PM 41.5172 -88.9017 66° East 174 200 8,900  Level Chicago Center
Tue 06:39:49 PM 41.5331 -88.8422 70° East 172 198 8,900 48 Level Chicago Center
Tue 06:40:51 PM 41.5536 -88.7856 64° Northeast 170 196 9,000 -240 Climbing Chicago Center
Tue 06:41:54 PM 41.5747 -88.7239 65° Northeast 181 208 8,400 -432 Descending Chicago Center
Tue 06:42:56 PM 41.5953 -88.6614 66° East 184 212 8,100 -242 Descending Chicago Center
Tue 06:43:58 PM 41.6186 -88.5919 66° East 173 199 7,900 -48 Descending Chicago Center
Tue 06:45:00 PM 41.6444 -88.5431 55° Northeast 163 188 8,000 97 Climbing Chicago Center
Tue 06:46:02 PM 41.6639 -88.4922 63° Northeast 160 184 8,100 48 Climbing Chicago Center
Tue 06:47:04 PM 41.6694 -88.4342 83° East 158 182 8,100 -194 Level Chicago Center
Tue 06:48:06 PM 41.6733 -88.3708 85° East 168 193 7,700 -435 Descending Chicago Center
Tue 06:49:08 PM 41.6994 -88.3036 62° Northeast 181 208 7,200 -629 Descending Chicago Center
Tue 06:50:10 PM 41.7436 -88.2692 30° Northeast 185 213 6,400 -677 Descending Chicago Center
Tue 06:51:12 PM 41.7872 -88.2339 31° Northeast 184 212 5,800 -624 Descending Chicago Center
Tue 06:52:15 PM 41.8189 -88.1894 46° Northeast 180 207 5,100 -672 Descending Chicago Center
Tue 06:53:17 PM 41.7922 -88.1428 127° Southeast 186 214 4,400 -581 Descending Chicago Center
Tue 06:54:19 PM 41.7864 -88.0925 99° East 175 201 3,900 -242 Descending Chicago Center
Tue 06:55:21 PM 41.8303 -88.0514 35° Northeast 166 191 3,900 -435 Level Chicago Center
Tue 06:56:23 PM 41.8650 -88.0067 44° Northeast 168 193 3,000 -968 Descending Chicago Center
Tue 06:56:54 PM 41.8833 -87.9833 43° Northeast 173 199 2,400 -989 Descending Chicago TRACON
Tue 06:57:54 PM 41.9167 -87.9333 48° Northeast 150 173 1,500 -700 Descending Chicago TRACON
Tue 06:58:54 PM 41.9500 -87.9167 20° North 122 140 1,000 -500 Descending Chicago TRACON
Tue 07:00:00 PM 41.9667 -87.9000 56° Northeast  Level FlightAware Approximate

Login

Don't have an account? Register now (free) for customized features, flight alerts, and more!